sensor_id;sensor_type;location;lat;lon;timestamp;P1;durP1;ratioP1;P2;durP2;ratioP2
7659;SDS011;3872;47.902;8.162;2022-08-18T00:02:06;8.90;;;4.37;;
7659;SDS011;3872;47.902;8.162;2022-08-18T00:04:36;7.47;;;4.00;;
7659;SDS011;3872;47.902;8.162;2022-08-18T00:07:04;8.50;;;4.20;;
7659;SDS011;3872;47.902;8.162;2022-08-18T00:09:32;6.90;;;3.67;;
7659;SDS011;3872;47.902;8.162;2022-08-18T00:12:00;8.47;;;4.40;;
7659;SDS011;3872;47.902;8.162;2022-08-18T00:14:29;9.47;;;4.30;;
7659;SDS011;3872;47.902;8.162;2022-08-18T00:16:56;7.80;;;3.80;;
7659;SDS011;3872;47.902;8.162;2022-08-18T00:19:23;7.57;;;4.23;;
7659;SDS011;3872;47.902;8.162;2022-08-18T00:21:50;9.40;;;4.40;;
7659;SDS011;3872;47.902;8.162;2022-08-18T00:24:17;7.40;;;3.50;;
7659;SDS011;3872;47.902;8.162;2022-08-18T00:26:43;7.67;;;4.03;;
7659;SDS011;3872;47.902;8.162;2022-08-18T00:29:10;6.67;;;3.80;;
7659;SDS011;3872;47.902;8.162;2022-08-18T00:31:38;7.97;;;3.93;;
7659;SDS011;3872;47.902;8.162;2022-08-18T00:34:04;6.17;;;3.73;;
7659;SDS011;3872;47.902;8.162;2022-08-18T00:36:32;9.00;;;4.10;;
7659;SDS011;3872;47.902;8.162;2022-08-18T00:38:59;7.73;;;4.10;;
7659;SDS011;3872;47.902;8.162;2022-08-18T00:41:26;7.00;;;4.40;;
7659;SDS011;3872;47.902;8.162;2022-08-18T00:43:53;8.13;;;4.70;;
7659;SDS011;3872;47.902;8.162;2022-08-18T00:46:23;9.30;;;4.73;;
7659;SDS011;3872;47.902;8.162;2022-08-18T00:48:53;7.30;;;4.07;;
7659;SDS011;3872;47.902;8.162;2022-08-18T00:51:22;10.83;;;4.47;;
7659;SDS011;3872;47.902;8.162;2022-08-18T00:53:55;9.13;;;4.23;;
7659;SDS011;3872;47.902;8.162;2022-08-18T00:56:26;7.40;;;4.37;;
7659;SDS011;3872;47.902;8.162;2022-08-18T00:58:59;7.43;;;4.70;;
7659;SDS011;3872;47.902;8.162;2022-08-18T01:01:30;7.10;;;4.80;;
7659;SDS011;3872;47.902;8.162;2022-08-18T01:04:00;6.90;;;4.37;;
7659;SDS011;3872;47.902;8.162;2022-08-18T01:06:32;7.40;;;4.10;;
7659;SDS011;3872;47.902;8.162;2022-08-18T01:09:04;6.50;;;4.00;;
7659;SDS011;3872;47.902;8.162;2022-08-18T01:11:31;8.17;;;4.90;;
7659;SDS011;3872;47.902;8.162;2022-08-18T01:13:59;7.60;;;4.50;;
7659;SDS011;3872;47.902;8.162;2022-08-18T01:16:25;8.73;;;4.30;;
7659;SDS011;3872;47.902;8.162;2022-08-18T01:19:11;8.20;;;4.53;;
7659;SDS011;3872;47.902;8.162;2022-08-18T01:21:58;7.40;;;4.53;;
7659;SDS011;3872;47.902;8.162;2022-08-18T01:24:32;8.00;;;4.50;;
7659;SDS011;3872;47.902;8.162;2022-08-18T01:27:25;8.63;;;5.13;;
7659;SDS011;3872;47.902;8.162;2022-08-18T01:29:56;11.83;;;4.73;;
7659;SDS011;3872;47.902;8.162;2022-08-18T01:32:27;8.30;;;4.30;;
7659;SDS011;3872;47.902;8.162;2022-08-18T01:34:53;8.77;;;5.13;;
7659;SDS011;3872;47.902;8.162;2022-08-18T01:37:22;8.70;;;4.80;;
7659;SDS011;3872;47.902;8.162;2022-08-18T01:39:50;9.20;;;5.40;;
7659;SDS011;3872;47.902;8.162;2022-08-18T01:42:17;15.50;;;5.07;;
7659;SDS011;3872;47.902;8.162;2022-08-18T01:44:44;7.90;;;5.00;;
7659;SDS011;3872;47.902;8.162;2022-08-18T01:47:12;9.23;;;4.90;;
7659;SDS011;3872;47.902;8.162;2022-08-18T01:49:42;9.07;;;4.57;;
7659;SDS011;3872;47.902;8.162;2022-08-18T01:52:09;10.80;;;5.77;;
7659;SDS011;3872;47.902;8.162;2022-08-18T01:54:42;9.10;;;4.70;;
7659;SDS011;3872;47.902;8.162;2022-08-18T01:57:09;8.27;;;4.47;;
7659;SDS011;3872;47.902;8.162;2022-08-18T01:59:37;7.80;;;4.63;;
7659;SDS011;3872;47.902;8.162;2022-08-18T02:02:04;7.50;;;4.20;;
7659;SDS011;3872;47.902;8.162;2022-08-18T02:04:31;8.10;;;4.23;;
7659;SDS011;3872;47.902;8.162;2022-08-18T02:06:59;8.67;;;4.67;;
7659;SDS011;3872;47.902;8.162;2022-08-18T02:09:26;8.13;;;4.57;;
7659;SDS011;3872;47.902;8.162;2022-08-18T02:11:53;8.30;;;4.80;;
7659;SDS011;3872;47.902;8.162;2022-08-18T02:14:21;8.53;;;4.50;;
7659;SDS011;3872;47.902;8.162;2022-08-18T02:16:48;8.30;;;4.57;;
7659;SDS011;3872;47.902;8.162;2022-08-18T02:19:14;8.00;;;4.50;;
7659;SDS011;3872;47.902;8.162;2022-08-18T02:21:41;7.93;;;4.30;;
7659;SDS011;3872;47.902;8.162;2022-08-18T02:24:08;9.33;;;4.60;;
7659;SDS011;3872;47.902;8.162;2022-08-18T02:26:34;7.40;;;4.60;;
7659;SDS011;3872;47.902;8.162;2022-08-18T02:29:00;7.77;;;4.00;;
7659;SDS011;3872;47.902;8.162;2022-08-18T02:31:28;9.60;;;4.50;;
7659;SDS011;3872;47.902;8.162;2022-08-18T02:33:55;6.30;;;3.93;;
7659;SDS011;3872;47.902;8.162;2022-08-18T02:36:23;8.33;;;4.90;;
7659;SDS011;3872;47.902;8.162;2022-08-18T02:38:49;7.90;;;4.67;;
7659;SDS011;3872;47.902;8.162;2022-08-18T02:41:16;10.23;;;4.40;;
7659;SDS011;3872;47.902;8.162;2022-08-18T02:43:44;7.57;;;3.20;;
7659;SDS011;3872;47.902;8.162;2022-08-18T02:46:12;10.13;;;5.10;;
7659;SDS011;3872;47.902;8.162;2022-08-18T02:48:40;7.40;;;4.10;;
7659;SDS011;3872;47.902;8.162;2022-08-18T02:51:08;7.00;;;4.20;;
7659;SDS011;3872;47.902;8.162;2022-08-18T02:53:36;6.70;;;3.70;;
7659;SDS011;3872;47.902;8.162;2022-08-18T02:56:05;7.33;;;4.53;;
7659;SDS011;3872;47.902;8.162;2022-08-18T02:58:50;8.30;;;3.97;;
7659;SDS011;3872;47.902;8.162;2022-08-18T03:01:18;7.10;;;4.43;;
7659;SDS011;3872;47.902;8.162;2022-08-18T03:03:47;8.50;;;4.40;;
7659;SDS011;3872;47.902;8.162;2022-08-18T03:06:14;6.20;;;3.73;;
7659;SDS011;3872;47.902;8.162;2022-08-18T03:08:41;7.47;;;3.70;;
7659;SDS011;3872;47.902;8.162;2022-08-18T03:11:13;7.63;;;4.30;;
7659;SDS011;3872;47.902;8.162;2022-08-18T03:13:40;9.43;;;3.97;;
7659;SDS011;3872;47.902;8.162;2022-08-18T03:16:07;8.00;;;4.30;;
7659;SDS011;3872;47.902;8.162;2022-08-18T03:18:34;7.00;;;4.10;;
7659;SDS011;3872;47.902;8.162;2022-08-18T03:21:05;7.40;;;4.63;;
7659;SDS011;3872;47.902;8.162;2022-08-18T03:23:31;8.57;;;4.87;;
7659;SDS011;3872;47.902;8.162;2022-08-18T03:25:58;8.77;;;5.37;;
7659;SDS011;3872;47.902;8.162;2022-08-18T03:28:24;8.53;;;4.47;;
7659;SDS011;3872;47.902;8.162;2022-08-18T03:30:52;9.57;;;5.00;;
7659;SDS011;3872;47.902;8.162;2022-08-18T03:33:19;7.30;;;4.30;;
7659;SDS011;3872;47.902;8.162;2022-08-18T03:35:46;8.43;;;5.03;;
7659;SDS011;3872;47.902;8.162;2022-08-18T03:38:14;7.60;;;4.40;;
7659;SDS011;3872;47.902;8.162;2022-08-18T03:40:40;8.47;;;4.90;;
7659;SDS011;3872;47.902;8.162;2022-08-18T03:43:07;8.00;;;4.30;;
7659;SDS011;3872;47.902;8.162;2022-08-18T03:45:34;7.63;;;4.60;;
7659;SDS011;3872;47.902;8.162;2022-08-18T03:48:00;10.83;;;4.90;;
7659;SDS011;3872;47.902;8.162;2022-08-18T03:50:27;8.17;;;4.70;;
7659;SDS011;3872;47.902;8.162;2022-08-18T03:52:54;8.20;;;4.57;;
7659;SDS011;3872;47.902;8.162;2022-08-18T03:55:25;7.57;;;4.47;;
7659;SDS011;3872;47.902;8.162;2022-08-18T03:57:56;8.60;;;5.00;;
7659;SDS011;3872;47.902;8.162;2022-08-18T04:00:27;8.00;;;4.20;;
7659;SDS011;3872;47.902;8.162;2022-08-18T04:02:54;8.67;;;4.60;;
7659;SDS011;3872;47.902;8.162;2022-08-18T04:05:21;11.90;;;4.93;;
7659;SDS011;3872;47.902;8.162;2022-08-18T04:07:47;9.90;;;5.20;;
7659;SDS011;3872;47.902;8.162;2022-08-18T04:10:14;7.97;;;4.70;;
7659;SDS011;3872;47.902;8.162;2022-08-18T04:12:42;7.93;;;4.80;;
7659;SDS011;3872;47.902;8.162;2022-08-18T04:15:09;8.73;;;4.13;;
7659;SDS011;3872;47.902;8.162;2022-08-18T04:17:36;10.13;;;5.10;;
7659;SDS011;3872;47.902;8.162;2022-08-18T04:20:03;7.83;;;4.13;;
7659;SDS011;3872;47.902;8.162;2022-08-18T04:22:30;6.90;;;3.63;;
7659;SDS011;3872;47.902;8.162;2022-08-18T04:24:58;6.90;;;4.30;;
7659;SDS011;3872;47.902;8.162;2022-08-18T04:27:26;7.77;;;4.17;;
7659;SDS011;3872;47.902;8.162;2022-08-18T04:29:55;8.67;;;4.10;;
7659;SDS011;3872;47.902;8.162;2022-08-18T04:32:22;9.20;;;4.37;;
7659;SDS011;3872;47.902;8.162;2022-08-18T04:34:48;5.70;;;3.43;;
7659;SDS011;3872;47.902;8.162;2022-08-18T04:37:15;7.20;;;4.00;;
7659;SDS011;3872;47.902;8.162;2022-08-18T04:39:42;6.70;;;3.97;;
7659;SDS011;3872;47.902;8.162;2022-08-18T04:42:09;7.00;;;4.17;;
7659;SDS011;3872;47.902;8.162;2022-08-18T04:44:36;6.80;;;4.27;;
7659;SDS011;3872;47.902;8.162;2022-08-18T04:47:04;7.80;;;4.97;;
7659;SDS011;3872;47.902;8.162;2022-08-18T04:49:32;7.43;;;4.03;;
7659;SDS011;3872;47.902;8.162;2022-08-18T04:51:58;8.13;;;5.00;;
7659;SDS011;3872;47.902;8.162;2022-08-18T04:54:43;9.23;;;4.63;;
7659;SDS011;3872;47.902;8.162;2022-08-18T04:57:10;7.67;;;4.20;;
7659;SDS011;3872;47.902;8.162;2022-08-18T04:59:39;9.73;;;5.47;;
7659;SDS011;3872;47.902;8.162;2022-08-18T05:02:09;8.77;;;4.97;;
7659;SDS011;3872;47.902;8.162;2022-08-18T05:04:37;8.93;;;4.70;;
7659;SDS011;3872;47.902;8.162;2022-08-18T05:07:05;9.23;;;4.67;;
7659;SDS011;3872;47.902;8.162;2022-08-18T05:09:33;15.00;;;4.97;;
7659;SDS011;3872;47.902;8.162;2022-08-18T05:12:00;9.17;;;5.40;;
7659;SDS011;3872;47.902;8.162;2022-08-18T05:14:27;8.90;;;4.90;;
7659;SDS011;3872;47.902;8.162;2022-08-18T05:16:56;8.73;;;5.50;;
7659;SDS011;3872;47.902;8.162;2022-08-18T05:19:24;8.80;;;5.17;;
7659;SDS011;3872;47.902;8.162;2022-08-18T05:21:51;7.90;;;4.60;;
7659;SDS011;3872;47.902;8.162;2022-08-18T05:24:19;7.90;;;4.50;;
7659;SDS011;3872;47.902;8.162;2022-08-18T05:26:47;11.10;;;5.93;;
7659;SDS011;3872;47.902;8.162;2022-08-18T05:29:15;10.70;;;6.33;;
7659;SDS011;3872;47.902;8.162;2022-08-18T05:31:42;8.87;;;5.37;;
7659;SDS011;3872;47.902;8.162;2022-08-18T05:34:09;10.33;;;6.07;;
7659;SDS011;3872;47.902;8.162;2022-08-18T05:36:44;11.87;;;7.00;;
7659;SDS011;3872;47.902;8.162;2022-08-18T05:39:22;10.80;;;6.63;;
7659;SDS011;3872;47.902;8.162;2022-08-18T05:41:52;8.57;;;5.80;;
7659;SDS011;3872;47.902;8.162;2022-08-18T05:44:24;15.67;;;5.43;;
7659;SDS011;3872;47.902;8.162;2022-08-18T05:46:53;6.60;;;4.43;;
7659;SDS011;3872;47.902;8.162;2022-08-18T05:49:23;10.53;;;5.50;;
7659;SDS011;3872;47.902;8.162;2022-08-18T05:51:53;16.83;;;5.30;;
7659;SDS011;3872;47.902;8.162;2022-08-18T05:54:22;9.37;;;5.73;;
7659;SDS011;3872;47.902;8.162;2022-08-18T05:57:11;8.70;;;5.10;;
7659;SDS011;3872;47.902;8.162;2022-08-18T05:59:41;7.37;;;4.50;;
7659;SDS011;3872;47.902;8.162;2022-08-18T06:02:10;7.93;;;5.10;;
7659;SDS011;3872;47.902;8.162;2022-08-18T06:04:42;8.10;;;5.10;;
7659;SDS011;3872;47.902;8.162;2022-08-18T06:07:15;8.90;;;5.30;;
7659;SDS011;3872;47.902;8.162;2022-08-18T06:09:50;11.67;;;4.53;;
7659;SDS011;3872;47.902;8.162;2022-08-18T06:12:22;10.10;;;4.80;;
7659;SDS011;3872;47.902;8.162;2022-08-18T06:14:53;9.10;;;5.37;;
7659;SDS011;3872;47.902;8.162;2022-08-18T06:17:36;9.47;;;5.60;;
7659;SDS011;3872;47.902;8.162;2022-08-18T06:20:18;9.40;;;5.00;;
7659;SDS011;3872;47.902;8.162;2022-08-18T06:22:57;8.10;;;4.80;;
7659;SDS011;3872;47.902;8.162;2022-08-18T06:25:34;8.03;;;5.07;;
7659;SDS011;3872;47.902;8.162;2022-08-18T06:28:10;10.67;;;4.67;;
7659;SDS011;3872;47.902;8.162;2022-08-18T06:30:47;9.30;;;5.50;;
7659;SDS011;3872;47.902;8.162;2022-08-18T06:33:29;9.43;;;5.87;;
7659;SDS011;3872;47.902;8.162;2022-08-18T06:36:08;10.60;;;5.83;;
7659;SDS011;3872;47.902;8.162;2022-08-18T06:38:46;9.63;;;5.10;;
7659;SDS011;3872;47.902;8.162;2022-08-18T06:41:22;9.57;;;5.50;;
7659;SDS011;3872;47.902;8.162;2022-08-18T06:43:59;10.30;;;5.40;;
7659;SDS011;3872;47.902;8.162;2022-08-18T06:46:31;8.33;;;5.13;;
7659;SDS011;3872;47.902;8.162;2022-08-18T06:49:06;8.07;;;5.20;;
7659;SDS011;3872;47.902;8.162;2022-08-18T06:51:35;9.63;;;5.97;;
7659;SDS011;3872;47.902;8.162;2022-08-18T06:54:04;10.90;;;6.23;;
7659;SDS011;3872;47.902;8.162;2022-08-18T06:56:34;8.63;;;4.93;;
7659;SDS011;3872;47.902;8.162;2022-08-18T06:59:12;11.37;;;6.10;;
7659;SDS011;3872;47.902;8.162;2022-08-18T07:01:45;9.47;;;4.90;;
7659;SDS011;3872;47.902;8.162;2022-08-18T07:07:13;9.33;;;5.30;;
7659;SDS011;3872;47.902;8.162;2022-08-18T07:09:43;9.23;;;5.60;;
7659;SDS011;3872;47.902;8.162;2022-08-18T07:12:10;13.90;;;7.37;;
7659;SDS011;3872;47.902;8.162;2022-08-18T07:14:47;10.87;;;6.17;;
7659;SDS011;3872;47.902;8.162;2022-08-18T07:17:18;10.93;;;6.13;;
7659;SDS011;3872;47.902;8.162;2022-08-18T07:19:53;9.90;;;6.20;;
7659;SDS011;3872;47.902;8.162;2022-08-18T07:22:21;10.27;;;6.07;;
7659;SDS011;3872;47.902;8.162;2022-08-18T07:24:49;9.13;;;5.60;;
7659;SDS011;3872;47.902;8.162;2022-08-18T07:27:19;10.90;;;5.23;;
7659;SDS011;3872;47.902;8.162;2022-08-18T07:29:58;12.50;;;4.80;;
7659;SDS011;3872;47.902;8.162;2022-08-18T07:32:29;8.30;;;4.93;;
7659;SDS011;3872;47.902;8.162;2022-08-18T07:35:01;10.30;;;6.23;;
7659;SDS011;3872;47.902;8.162;2022-08-18T07:37:31;13.27;;;5.80;;
7659;SDS011;3872;47.902;8.162;2022-08-18T07:40:09;11.23;;;5.30;;
7659;SDS011;3872;47.902;8.162;2022-08-18T07:42:46;12.40;;;5.57;;
7659;SDS011;3872;47.902;8.162;2022-08-18T07:45:21;11.77;;;5.67;;
7659;SDS011;3872;47.902;8.162;2022-08-18T07:47:53;8.53;;;4.80;;
7659;SDS011;3872;47.902;8.162;2022-08-18T07:50:24;7.80;;;4.40;;
7659;SDS011;3872;47.902;8.162;2022-08-18T07:52:55;11.40;;;4.80;;
7659;SDS011;3872;47.902;8.162;2022-08-18T07:55:35;11.10;;;4.87;;
7659;SDS011;3872;47.902;8.162;2022-08-18T07:58:08;10.63;;;5.27;;
7659;SDS011;3872;47.902;8.162;2022-08-18T08:00:45;7.80;;;5.17;;
7659;SDS011;3872;47.902;8.162;2022-08-18T08:03:21;10.13;;;5.90;;
7659;SDS011;3872;47.902;8.162;2022-08-18T08:05:57;8.47;;;4.80;;
7659;SDS011;3872;47.902;8.162;2022-08-18T08:08:30;8.57;;;5.40;;
7659;SDS011;3872;47.902;8.162;2022-08-18T08:11:06;11.60;;;4.30;;
7659;SDS011;3872;47.902;8.162;2022-08-18T08:13:45;7.97;;;4.40;;
7659;SDS011;3872;47.902;8.162;2022-08-18T08:16:23;12.37;;;5.50;;
7659;SDS011;3872;47.902;8.162;2022-08-18T08:19:01;7.83;;;4.87;;
7659;SDS011;3872;47.902;8.162;2022-08-18T08:21:35;9.03;;;5.33;;
7659;SDS011;3872;47.902;8.162;2022-08-18T08:24:08;8.30;;;4.27;;
7659;SDS011;3872;47.902;8.162;2022-08-18T08:26:45;9.80;;;4.40;;
7659;SDS011;3872;47.902;8.162;2022-08-18T08:29:22;8.17;;;4.90;;
7659;SDS011;3872;47.902;8.162;2022-08-18T08:31:59;8.67;;;4.97;;
7659;SDS011;3872;47.902;8.162;2022-08-18T08:34:30;8.90;;;4.97;;
7659;SDS011;3872;47.902;8.162;2022-08-18T08:37:05;13.93;;;5.57;;
7659;SDS011;3872;47.902;8.162;2022-08-18T08:39:35;11.30;;;5.80;;
7659;SDS011;3872;47.902;8.162;2022-08-18T08:42:08;10.40;;;4.93;;
7659;SDS011;3872;47.902;8.162;2022-08-18T08:44:40;9.33;;;5.00;;
7659;SDS011;3872;47.902;8.162;2022-08-18T08:47:13;9.10;;;5.40;;
7659;SDS011;3872;47.902;8.162;2022-08-18T08:49:43;9.20;;;5.70;;
7659;SDS011;3872;47.902;8.162;2022-08-18T08:52:14;10.00;;;4.97;;
7659;SDS011;3872;47.902;8.162;2022-08-18T08:54:47;11.30;;;5.27;;
7659;SDS011;3872;47.902;8.162;2022-08-18T08:57:19;9.10;;;5.53;;
7659;SDS011;3872;47.902;8.162;2022-08-18T08:59:51;8.93;;;4.93;;
7659;SDS011;3872;47.902;8.162;2022-08-18T09:02:32;9.40;;;4.60;;
7659;SDS011;3872;47.902;8.162;2022-08-18T09:05:13;8.40;;;5.10;;
7659;SDS011;3872;47.902;8.162;2022-08-18T09:07:58;8.50;;;4.93;;
7659;SDS011;3872;47.902;8.162;2022-08-18T09:10:49;8.80;;;4.60;;
7659;SDS011;3872;47.902;8.162;2022-08-18T09:13:40;10.17;;;5.07;;
7659;SDS011;3872;47.902;8.162;2022-08-18T09:16:23;9.80;;;5.23;;
7659;SDS011;3872;47.902;8.162;2022-08-18T09:19:08;12.70;;;5.37;;
7659;SDS011;3872;47.902;8.162;2022-08-18T09:21:47;11.13;;;5.70;;
7659;SDS011;3872;47.902;8.162;2022-08-18T09:24:21;12.67;;;5.57;;
7659;SDS011;3872;47.902;8.162;2022-08-18T09:26:51;10.60;;;5.90;;
7659;SDS011;3872;47.902;8.162;2022-08-18T09:29:47;11.17;;;6.70;;
7659;SDS011;3872;47.902;8.162;2022-08-18T09:32:32;17.03;;;5.83;;
7659;SDS011;3872;47.902;8.162;2022-08-18T09:35:30;10.90;;;5.30;;
7659;SDS011;3872;47.902;8.162;2022-08-18T09:38:09;11.47;;;6.10;;
7659;SDS011;3872;47.902;8.162;2022-08-18T09:40:58;9.97;;;5.00;;
7659;SDS011;3872;47.902;8.162;2022-08-18T09:43:54;11.50;;;6.07;;
7659;SDS011;3872;47.902;8.162;2022-08-18T09:49:43;9.53;;;5.20;;
7659;SDS011;3872;47.902;8.162;2022-08-18T09:55:40;10.80;;;6.03;;
7659;SDS011;3872;47.902;8.162;2022-08-18T09:58:19;10.50;;;5.77;;
7659;SDS011;3872;47.902;8.162;2022-08-18T10:01:17;11.30;;;6.20;;
7659;SDS011;3872;47.902;8.162;2022-08-18T10:06:45;9.37;;;5.23;;
7659;SDS011;3872;47.902;8.162;2022-08-18T10:09:15;16.10;;;5.80;;
7659;SDS011;3872;47.902;8.162;2022-08-18T10:14:57;9.70;;;5.80;;
7659;SDS011;3872;47.902;8.162;2022-08-18T10:17:52;8.67;;;5.10;;
7659;SDS011;3872;47.902;8.162;2022-08-18T10:20:33;9.10;;;5.40;;
7659;SDS011;3872;47.902;8.162;2022-08-18T10:23:07;9.17;;;5.00;;
7659;SDS011;3872;47.902;8.162;2022-08-18T10:25:37;8.43;;;5.00;;
7659;SDS011;3872;47.902;8.162;2022-08-18T10:28:07;10.43;;;4.80;;
7659;SDS011;3872;47.902;8.162;2022-08-18T10:30:43;7.60;;;4.50;;
7659;SDS011;3872;47.902;8.162;2022-08-18T10:36:34;9.27;;;5.07;;
7659;SDS011;3872;47.902;8.162;2022-08-18T10:39:04;12.83;;;4.87;;
7659;SDS011;3872;47.902;8.162;2022-08-18T10:41:32;8.50;;;4.70;;
7659;SDS011;3872;47.902;8.162;2022-08-18T10:44:03;9.37;;;5.27;;
7659;SDS011;3872;47.902;8.162;2022-08-18T10:46:32;8.83;;;4.97;;
7659;SDS011;3872;47.902;8.162;2022-08-18T10:49:16;8.67;;;4.73;;
7659;SDS011;3872;47.902;8.162;2022-08-18T10:51:52;9.53;;;4.80;;
7659;SDS011;3872;47.902;8.162;2022-08-18T10:54:38;14.10;;;4.77;;
7659;SDS011;3872;47.902;8.162;2022-08-18T10:57:23;7.90;;;4.60;;
7659;SDS011;3872;47.902;8.162;2022-08-18T10:59:58;9.30;;;4.90;;
7659;SDS011;3872;47.902;8.162;2022-08-18T11:02:35;8.50;;;5.13;;
7659;SDS011;3872;47.902;8.162;2022-08-18T11:05:15;8.80;;;4.40;;
7659;SDS011;3872;47.902;8.162;2022-08-18T11:07:46;10.73;;;4.97;;
7659;SDS011;3872;47.902;8.162;2022-08-18T11:10:16;8.57;;;4.77;;
7659;SDS011;3872;47.902;8.162;2022-08-18T11:12:52;8.73;;;4.90;;
7659;SDS011;3872;47.902;8.162;2022-08-18T11:15:27;17.37;;;5.23;;
7659;SDS011;3872;47.902;8.162;2022-08-18T11:18:05;8.80;;;5.10;;
7659;SDS011;3872;47.902;8.162;2022-08-18T11:20:41;8.33;;;5.00;;
7659;SDS011;3872;47.902;8.162;2022-08-18T11:23:13;7.90;;;4.90;;
7659;SDS011;3872;47.902;8.162;2022-08-18T11:25:42;19.50;;;5.73;;
7659;SDS011;3872;47.902;8.162;2022-08-18T11:28:15;9.27;;;5.30;;
7659;SDS011;3872;47.902;8.162;2022-08-18T11:30:43;11.17;;;5.13;;
7659;SDS011;3872;47.902;8.162;2022-08-18T11:33:13;8.00;;;4.63;;
7659;SDS011;3872;47.902;8.162;2022-08-18T11:35:44;9.40;;;5.30;;
7659;SDS011;3872;47.902;8.162;2022-08-18T11:38:15;10.37;;;5.00;;
7659;SDS011;3872;47.902;8.162;2022-08-18T11:40:43;8.53;;;4.90;;
7659;SDS011;3872;47.902;8.162;2022-08-18T11:43:13;8.53;;;4.87;;
7659;SDS011;3872;47.902;8.162;2022-08-18T11:45:52;7.73;;;4.30;;
7659;SDS011;3872;47.902;8.162;2022-08-18T11:48:22;7.80;;;4.73;;
7659;SDS011;3872;47.902;8.162;2022-08-18T11:51:02;10.80;;;5.43;;
7659;SDS011;3872;47.902;8.162;2022-08-18T11:53:38;9.50;;;4.87;;
7659;SDS011;3872;47.902;8.162;2022-08-18T11:56:14;10.37;;;5.40;;
7659;SDS011;3872;47.902;8.162;2022-08-18T11:58:49;11.67;;;4.73;;
7659;SDS011;3872;47.902;8.162;2022-08-18T12:01:34;8.20;;;4.53;;
7659;SDS011;3872;47.902;8.162;2022-08-18T12:04:20;8.90;;;5.87;;
7659;SDS011;3872;47.902;8.162;2022-08-18T12:06:53;9.63;;;6.17;;
7659;SDS011;3872;47.902;8.162;2022-08-18T12:09:28;11.03;;;6.53;;
7659;SDS011;3872;47.902;8.162;2022-08-18T12:12:02;9.70;;;6.23;;
7659;SDS011;3872;47.902;8.162;2022-08-18T12:14:32;12.03;;;6.77;;
7659;SDS011;3872;47.902;8.162;2022-08-18T12:17:15;20.50;;;7.97;;
7659;SDS011;3872;47.902;8.162;2022-08-18T12:19:41;12.13;;;7.77;;
7659;SDS011;3872;47.902;8.162;2022-08-18T12:22:12;20.17;;;8.23;;
7659;SDS011;3872;47.902;8.162;2022-08-18T12:24:44;15.93;;;8.60;;
7659;SDS011;3872;47.902;8.162;2022-08-18T12:27:11;13.03;;;8.43;;
7659;SDS011;3872;47.902;8.162;2022-08-18T12:29:39;13.60;;;8.47;;
7659;SDS011;3872;47.902;8.162;2022-08-18T12:32:06;14.10;;;8.00;;
7659;SDS011;3872;47.902;8.162;2022-08-18T12:34:33;13.27;;;8.30;;
7659;SDS011;3872;47.902;8.162;2022-08-18T12:37:00;15.90;;;8.70;;
7659;SDS011;3872;47.902;8.162;2022-08-18T12:39:27;12.53;;;8.00;;
7659;SDS011;3872;47.902;8.162;2022-08-18T12:41:56;13.87;;;9.40;;
7659;SDS011;3872;47.902;8.162;2022-08-18T12:44:23;11.90;;;7.10;;
7659;SDS011;3872;47.902;8.162;2022-08-18T12:46:50;13.37;;;8.70;;
7659;SDS011;3872;47.902;8.162;2022-08-18T12:49:18;14.50;;;9.07;;
7659;SDS011;3872;47.902;8.162;2022-08-18T12:51:46;18.60;;;9.53;;
7659;SDS011;3872;47.902;8.162;2022-08-18T12:54:13;14.37;;;8.27;;
7659;SDS011;3872;47.902;8.162;2022-08-18T12:56:39;15.60;;;8.40;;
7659;SDS011;3872;47.902;8.162;2022-08-18T12:59:08;12.33;;;7.50;;
7659;SDS011;3872;47.902;8.162;2022-08-18T13:01:36;13.80;;;8.67;;
7659;SDS011;3872;47.902;8.162;2022-08-18T13:04:04;15.30;;;9.07;;
7659;SDS011;3872;47.902;8.162;2022-08-18T13:06:31;13.43;;;8.50;;
7659;SDS011;3872;47.902;8.162;2022-08-18T13:08:59;15.83;;;8.80;;
7659;SDS011;3872;47.902;8.162;2022-08-18T13:11:26;14.33;;;7.90;;
7659;SDS011;3872;47.902;8.162;2022-08-18T13:13:53;18.40;;;8.63;;
7659;SDS011;3872;47.902;8.162;2022-08-18T13:16:21;17.63;;;8.83;;
7659;SDS011;3872;47.902;8.162;2022-08-18T13:18:48;15.20;;;8.10;;
7659;SDS011;3872;47.902;8.162;2022-08-18T13:21:15;12.67;;;8.30;;
7659;SDS011;3872;47.902;8.162;2022-08-18T13:23:43;13.67;;;9.17;;
7659;SDS011;3872;47.902;8.162;2022-08-18T13:26:12;16.97;;;8.83;;
7659;SDS011;3872;47.902;8.162;2022-08-18T13:28:46;15.60;;;8.63;;
7659;SDS011;3872;47.902;8.162;2022-08-18T13:31:13;13.80;;;8.97;;
7659;SDS011;3872;47.902;8.162;2022-08-18T13:33:41;14.27;;;9.20;;
7659;SDS011;3872;47.902;8.162;2022-08-18T13:36:08;14.23;;;8.90;;
7659;SDS011;3872;47.902;8.162;2022-08-18T13:38:34;14.57;;;9.63;;
7659;SDS011;3872;47.902;8.162;2022-08-18T13:41:01;14.10;;;9.00;;
7659;SDS011;3872;47.902;8.162;2022-08-18T13:43:30;15.77;;;8.97;;
7659;SDS011;3872;47.902;8.162;2022-08-18T13:45:59;15.97;;;9.47;;
7659;SDS011;3872;47.902;8.162;2022-08-18T13:48:26;14.87;;;9.00;;
7659;SDS011;3872;47.902;8.162;2022-08-18T13:50:55;13.43;;;8.80;;
7659;SDS011;3872;47.902;8.162;2022-08-18T13:53:23;14.37;;;8.70;;
7659;SDS011;3872;47.902;8.162;2022-08-18T13:55:51;16.00;;;9.00;;
7659;SDS011;3872;47.902;8.162;2022-08-18T13:58:18;14.87;;;9.60;;
7659;SDS011;3872;47.902;8.162;2022-08-18T14:00:45;16.13;;;9.53;;
7659;SDS011;3872;47.902;8.162;2022-08-18T14:03:11;15.17;;;7.90;;
7659;SDS011;3872;47.902;8.162;2022-08-18T14:05:38;14.23;;;9.07;;
7659;SDS011;3872;47.902;8.162;2022-08-18T14:08:06;13.70;;;8.60;;
7659;SDS011;3872;47.902;8.162;2022-08-18T14:10:32;16.43;;;9.47;;
7659;SDS011;3872;47.902;8.162;2022-08-18T14:12:59;14.43;;;8.90;;
7659;SDS011;3872;47.902;8.162;2022-08-18T14:15:26;15.77;;;8.60;;
7659;SDS011;3872;47.902;8.162;2022-08-18T14:17:53;14.20;;;9.07;;
7659;SDS011;3872;47.902;8.162;2022-08-18T14:20:19;14.40;;;9.33;;
7659;SDS011;3872;47.902;8.162;2022-08-18T14:23:04;14.17;;;8.33;;
7659;SDS011;3872;47.902;8.162;2022-08-18T14:25:49;13.37;;;8.43;;
7659;SDS011;3872;47.902;8.162;2022-08-18T14:28:33;14.97;;;8.97;;
7659;SDS011;3872;47.902;8.162;2022-08-18T14:31:02;13.37;;;8.60;;
7659;SDS011;3872;47.902;8.162;2022-08-18T14:33:29;13.47;;;8.60;;
7659;SDS011;3872;47.902;8.162;2022-08-18T14:35:57;12.83;;;8.53;;
7659;SDS011;3872;47.902;8.162;2022-08-18T14:38:25;19.50;;;9.43;;
7659;SDS011;3872;47.902;8.162;2022-08-18T14:40:52;15.57;;;10.00;;
7659;SDS011;3872;47.902;8.162;2022-08-18T14:43:19;15.20;;;10.00;;
7659;SDS011;3872;47.902;8.162;2022-08-18T14:45:46;18.73;;;10.20;;
7659;SDS011;3872;47.902;8.162;2022-08-18T14:48:14;16.40;;;10.50;;
7659;SDS011;3872;47.902;8.162;2022-08-18T14:50:44;16.67;;;9.70;;
7659;SDS011;3872;47.902;8.162;2022-08-18T14:53:14;19.57;;;11.20;;
7659;SDS011;3872;47.902;8.162;2022-08-18T14:55:45;16.97;;;10.10;;
7659;SDS011;3872;47.902;8.162;2022-08-18T14:58:12;16.77;;;10.60;;
7659;SDS011;3872;47.902;8.162;2022-08-18T15:00:38;21.20;;;11.10;;
7659;SDS011;3872;47.902;8.162;2022-08-18T15:03:05;17.03;;;10.93;;
7659;SDS011;3872;47.902;8.162;2022-08-18T15:05:32;16.93;;;10.70;;
7659;SDS011;3872;47.902;8.162;2022-08-18T15:07:59;15.77;;;10.53;;
7659;SDS011;3872;47.902;8.162;2022-08-18T15:10:27;15.33;;;10.00;;
7659;SDS011;3872;47.902;8.162;2022-08-18T15:12:55;22.73;;;10.70;;
7659;SDS011;3872;47.902;8.162;2022-08-18T15:15:23;17.70;;;10.93;;
7659;SDS011;3872;47.902;8.162;2022-08-18T15:17:50;20.07;;;10.80;;
7659;SDS011;3872;47.902;8.162;2022-08-18T15:20:17;18.50;;;10.50;;
7659;SDS011;3872;47.902;8.162;2022-08-18T15:22:44;18.60;;;10.83;;
7659;SDS011;3872;47.902;8.162;2022-08-18T15:25:29;21.60;;;11.10;;
7659;SDS011;3872;47.902;8.162;2022-08-18T15:28:08;19.13;;;11.03;;
7659;SDS011;3872;47.902;8.162;2022-08-18T15:30:35;15.80;;;10.90;;
7659;SDS011;3872;47.902;8.162;2022-08-18T15:33:02;15.90;;;10.10;;
7659;SDS011;3872;47.902;8.162;2022-08-18T15:35:29;17.67;;;11.77;;
7659;SDS011;3872;47.902;8.162;2022-08-18T15:37:56;19.90;;;11.90;;
7659;SDS011;3872;47.902;8.162;2022-08-18T15:40:25;21.73;;;11.33;;
7659;SDS011;3872;47.902;8.162;2022-08-18T15:42:53;19.40;;;10.97;;
7659;SDS011;3872;47.902;8.162;2022-08-18T15:45:24;18.67;;;11.60;;
7659;SDS011;3872;47.902;8.162;2022-08-18T15:47:52;19.43;;;12.70;;
7659;SDS011;3872;47.902;8.162;2022-08-18T15:50:20;18.93;;;12.33;;
7659;SDS011;3872;47.902;8.162;2022-08-18T15:52:47;20.40;;;12.33;;